Wetterdaten: Woche 19.02.18 - 25.02.18 (KW8)
Datum Zeit Temp. A. Feuchte I. Feuchte A. Luftdruck Regen Wind Richtung Sonnenschein UV Solar Taupunkt Windchill Windben
19.02.2018 00:00 -2,0 C 60 % 80 % 1026,3 hPa 0,0 l/m 3,2 km/h (1 Bft) O 0,00 h 0,0 UV-I 0 W/m -4,9 C -2,0 C 6,2 km/h (2 Bft)
19.02.2018 01:00 -2,1 C 60 % 81 % 1025,9 hPa 0,0 l/m 2,2 km/h (1 Bft) O-SO 0,00 h 0,0 UV-I 0 W/m -4,9 C -2,1 C 4,6 km/h (1 Bft)
19.02.2018 02:00 -2,1 C 60 % 82 % 1025,0 hPa 0,0 l/m 3,4 km/h (1 Bft) O-SO 0,00 h 0,0 UV-I 0 W/m -4,7 C -2,2 C 6,5 km/h (2 Bft)
19.02.2018 03:00 -2,8 C 61 % 83 % 1024,2 hPa 0,0 l/m 0,1 km/h (0 Bft) O-SO 0,00 h 0,0 UV-I 0 W/m -5,3 C -2,8 C 0,3 km/h (0 Bft)
19.02.2018 04:00 -4,3 C 61 % 84 % 1023,7 hPa 0,0 l/m 0,1 km/h (0 Bft) O-NO 0,00 h 0,0 UV-I 0 W/m -6,6 C -4,3 C 0,2 km/h (0 Bft)
19.02.2018 05:00 -5,6 C 61 % 87 % 1023,3 hPa 0,0 l/m 0,3 km/h (0 Bft) O-NO 0,00 h 0,0 UV-I 0 W/m -7,5 C -5,6 C 0,9 km/h (0 Bft)
19.02.2018 06:00 -6,5 C 60 % 88 % 1023,1 hPa 0,0 l/m 0,2 km/h (0 Bft) NO 0,00 h 0,0 UV-I 0 W/m -8,2 C -6,5 C 1,2 km/h (1 Bft)
19.02.2018 07:00 -6,9 C 58 % 89 % 1023,0 hPa 0,0 l/m 0,0 km/h (0 Bft) N 0,00 h 0,0 UV-I 29 W/m -8,4 C -6,9 C 0,0 km/h (0 Bft)
19.02.2018 08:00 -5,4 C 55 % 92 % 1022,8 hPa 0,0 l/m 0,5 km/h (0 Bft) O-SO 0,20 h 0,5 UV-I 101 W/m -6,5 C -5,4 C 1,5 km/h (1 Bft)
19.02.2018 09:00 -1,4 C 55 % 84 % 1022,5 hPa 0,0 l/m 3,0 km/h (1 Bft) O-SO 0,93 h 0,8 UV-I 255 W/m -3,7 C -1,5 C 7,3 km/h (2 Bft)
19.02.2018 10:00 0,4 C 55 % 74 % 1022,0 hPa 0,0 l/m 2,9 km/h (1 Bft) O 1,00 h 1,2 UV-I 373 W/m -3,6 C 0,3 C 7,5 km/h (2 Bft)
19.02.2018 11:00 0,6 C 53 % 71 % 1021,5 hPa 0,0 l/m 2,0 km/h (1 Bft) O-NO 1,00 h 1,3 UV-I 273 W/m -4,0 C 0,6 C 5,7 km/h (1 Bft)
19.02.2018 12:00 1,7 C 53 % 68 % 1020,8 hPa 0,0 l/m 2,1 km/h (1 Bft) O 1,00 h 1,4 UV-I 350 W/m -3,5 C 1,7 C 5,4 km/h (1 Bft)
19.02.2018 13:00 3,7 C 48 % 63 % 1020,0 hPa 0,0 l/m 2,7 km/h (1 Bft) NO 1,00 h 1,3 UV-I 352 W/m -2,6 C 3,7 C 6,5 km/h (2 Bft)
19.02.2018 14:00 4,0 C 50 % 60 % 1019,4 hPa 0,0 l/m 2,8 km/h (1 Bft) NO 1,00 h 1,1 UV-I 317 W/m -2,9 C 3,8 C 6,6 km/h (2 Bft)
19.02.2018 15:00 3,7 C 50 % 59 % 1018,6 hPa 0,0 l/m 1,9 km/h (1 Bft) O-NO 0,90 h 0,7 UV-I 204 W/m -3,7 C 3,6 C 4,7 km/h (1 Bft)
19.02.2018 16:00 2,6 C 51 % 61 % 1018,2 hPa 0,0 l/m 0,6 km/h (0 Bft) O-NO 0,00 h 0,5 UV-I 64 W/m -4,2 C 2,6 C 1,9 km/h (1 Bft)
19.02.2018 17:00 1,6 C 53 % 64 % 1018,2 hPa 0,0 l/m 0,0 km/h (0 Bft) O-NO 0,00 h 0,0 UV-I 24 W/m -4,4 C 1,6 C 0,1 km/h (0 Bft)
19.02.2018 18:00 0,4 C 53 % 69 % 1018,2 hPa 0,0 l/m 0,2 km/h (0 Bft) N-NO 0,00 h 0,0 UV-I 0 W/m -4,6 C 0,4 C 1,1 km/h (1 Bft)
19.02.2018 19:00 -0,9 C 54 % 74 % 1018,1 hPa 0,0 l/m 0,3 km/h (0 Bft) NO 0,00 h 0,0 UV-I 0 W/m -4,9 C -0,9 C 1,0 km/h (0 Bft)
19.02.2018 20:00 -1,8 C 55 % 79 % 1018,1 hPa 0,0 l/m 0,8 km/h (0 Bft) N-NO 0,00 h 0,0 UV-I 0 W/m -4,9 C -1,8 C 2,3 km/h (1 Bft)
19.02.2018 21:00 -2,1 C 55 % 82 % 1017,9 hPa 0,0 l/m 0,3 km/h (0 Bft) NO 0,00 h 0,0 UV-I 0 W/m -4,7 C -2,1 C 1,3 km/h (1 Bft)
19.02.2018 22:00 -1,8 C 55 % 83 % 1017,6 hPa 0,0 l/m 0,7 km/h (0 Bft) O-NO 0,00 h 0,0 UV-I 0 W/m -4,3 C -1,8 C 2,2 km/h (1 Bft)
19.02.2018 23:00 -1,7 C 56 % 83 % 1017,5 hPa 0,0 l/m 1,2 km/h (1 Bft) O-NO 0,00 h 0,0 UV-I 0 W/m -4,2 C -1,7 C 3,6 km/h (1 Bft)
20.02.2018 00:00 -1,8 C 56 % 82 % 1017,5 hPa 0,0 l/m 1,6 km/h (1 Bft) O-SO 0,00 h 0,0 UV-I 0 W/m -4,4 C -1,8 C 4,3 km/h (1 Bft)
20.02.2018 01:00 -2,1 C 58 % 82 % 1017,0 hPa 0,0 l/m 1,8 km/h (1 Bft) O-SO 0,00 h 0,0 UV-I 0 W/m -4,6 C -2,1 C 4,2 km/h (1 Bft)
20.02.2018 02:00 -2,1 C 59 % 83 % 1016,9 hPa 0,0 l/m 0,9 km/h (0 Bft) O-NO 0,00 h 0,0 UV-I 0 W/m -4,6 C -2,1 C 2,9 km/h (1 Bft)
20.02.2018 03:00 -2,1 C 59 % 83 % 1016,7 hPa 0,0 l/m 0,5 km/h (0 Bft) NO 0,00 h 0,0 UV-I 0 W/m -4,6 C -2,1 C 1,6 km/h (1 Bft)
20.02.2018 04:00 -2,1 C 58 % 82 % 1016,6 hPa 0,0 l/m 1,6 km/h (1 Bft) N-NO 0,00 h 0,0 UV-I 0 W/m -4,8 C -2,1 C 4,0 km/h (1 Bft)
20.02.2018 05:00 -2,2 C 58 % 82 % 1016,6 hPa 0,0 l/m 1,6 km/h (1 Bft) SO 0,00 h 0,0 UV-I 0 W/m -4,9 C -2,2 C 4,0 km/h (1 Bft)
20.02.2018 06:00 -2,2 C 58 % 84 % 1016,5 hPa 0,0 l/m 1,8 km/h (1 Bft) O 0,00 h 0,0 UV-I 0 W/m -4,6 C -2,2 C 4,1 km/h (1 Bft)
20.02.2018 07:00 -2,6 C 58 % 86 % 1016,8 hPa 0,0 l/m 1,3 km/h (1 Bft) O 0,00 h 0,0 UV-I 7 W/m -4,6 C -2,6 C 3,5 km/h (1 Bft)
20.02.2018 08:00 -2,5 C 57 % 87 % 1016,8 hPa 0,0 l/m 2,2 km/h (1 Bft) O-SO 0,00 h 0,0 UV-I 18 W/m -4,4 C -2,5 C 4,8 km/h (1 Bft)
20.02.2018 09:00 -2,3 C 56 % 87 % 1017,0 hPa 0,0 l/m 2,2 km/h (1 Bft) O-NO 0,00 h 0,0 UV-I 34 W/m -4,2 C -2,3 C 5,1 km/h (1 Bft)
20.02.2018 10:00 -1,9 C 56 % 86 % 1016,8 hPa 0,0 l/m 3,3 km/h (1 Bft) O-NO 0,00 h 0,0 UV-I 51 W/m -4,0 C -2,0 C 7,5 km/h (2 Bft)
20.02.2018 11:00 -1,6 C 54 % 84 % 1016,9 hPa 0,0 l/m 3,2 km/h (1 Bft) O 0,00 h 0,5 UV-I 61 W/m -4,0 C -1,9 C 7,2 km/h (2 Bft)
20.02.2018 12:00 -1,6 C 51 % 82 % 1016,8 hPa 0,0 l/m 2,5 km/h (1 Bft) O 0,00 h 0,5 UV-I 76 W/m -4,3 C -1,6 C 5,8 km/h (2 Bft)
20.02.2018 13:00 -1,0 C 52 % 78 % 1016,7 hPa 0,0 l/m 2,2 km/h (1 Bft) NO 0,22 h 0,7 UV-I 121 W/m -4,3 C -1,0 C 5,2 km/h (1 Bft)
20.02.2018 14:00 -0,3 C 53 % 76 % 1016,6 hPa 0,0 l/m 2,8 km/h (1 Bft) O-NO 0,28 h 0,7 UV-I 132 W/m -3,9 C -0,4 C 6,6 km/h (2 Bft)
20.02.2018 15:00 0,0 C 53 % 77 % 1016,7 hPa 0,0 l/m 1,9 km/h (1 Bft) NO 0,00 h 0,5 UV-I 84 W/m -3,5 C 0,0 C 5,1 km/h (1 Bft)
20.02.2018 16:00 -0,2 C 53 % 79 % 1017,0 hPa 0,0 l/m 1,4 km/h (1 Bft) N 0,00 h 0,0 UV-I 34 W/m -3,4 C -0,2 C 3,7 km/h (1 Bft)
20.02.2018 17:00 -0,6 C 54 % 85 % 1017,5 hPa 0,0 l/m 2,2 km/h (1 Bft) N 0,00 h 0,0 UV-I 11 W/m -2,8 C -0,6 C 4,2 km/h (1 Bft)
20.02.2018 18:00 -1,0 C 54 % 89 % 1017,8 hPa 0,0 l/m 2,9 km/h (1 Bft) N 0,00 h 0,0 UV-I 0 W/m -2,7 C -1,1 C 6,0 km/h (2 Bft)
20.02.2018 19:00 -1,2 C 55 % 90 % 1018,5 hPa 0,0 l/m 3,0 km/h (1 Bft) N 0,00 h 0,0 UV-I 0 W/m -2,7 C -1,2 C 5,4 km/h (1 Bft)
20.02.2018 20:00 -1,7 C 55 % 90 % 1018,7 hPa 0,0 l/m 4,6 km/h (1 Bft) N 0,00 h 0,0 UV-I 0 W/m -3,1 C -1,8 C 7,0 km/h (2 Bft)
20.02.2018 21:00 -2,4 C 56 % 90 % 1018,8 hPa 0,0 l/m 1,6 km/h (1 Bft) N 0,00 h 0,0 UV-I 0 W/m -3,9 C -2,4 C 3,4 km/h (1 Bft)
20.02.2018 22:00 -3,2 C 56 % 91 % 1019,0 hPa 0,0 l/m 2,6 km/h (1 Bft) N 0,00 h 0,0 UV-I 0 W/m -4,4 C -3,2 C 4,1 km/h (1 Bft)
20.02.2018 23:00 -3,8 C 56 % 91 % 1019,2 hPa 0,0 l/m 1,7 km/h (1 Bft) N 0,00 h 0,0 UV-I 0 W/m -5,1 C -3,8 C 3,5 km/h (1 Bft)
21.02.2018 00:00 -4,7 C 57 % 91 % 1019,4 hPa 0,0 l/m 0,2 km/h (0 Bft) N 0,00 h 0,0 UV-I 0 W/m -5,9 C -4,7 C 0,4 km/h (0 Bft)
21.02.2018 01:00 -5,1 C 57 % 91 % 1019,7 hPa 0,0 l/m 1,9 km/h (1 Bft) N 0,00 h 0,0 UV-I 0 W/m -6,3 C -5,1 C 4,3 km/h (1 Bft)
21.02.2018 02:00 -4,8 C 58 % 93 % 1019,9 hPa 0,0 l/m 1,2 km/h (1 Bft) N 0,00 h 0,0 UV-I 0 W/m -5,8 C -4,8 C 2,7 km/h (1 Bft)
21.02.2018 03:00 -5,1 C 58 % 93 % 1020,0 hPa 0,0 l/m 4,5 km/h (1 Bft) N 0,00 h 0,0 UV-I 0 W/m -6,0 C -5,4 C 7,2 km/h (2 Bft)
21.02.2018 04:00 -5,3 C 59 % 93 % 1020,5 hPa 0,0 l/m 4,3 km/h (1 Bft) N 0,00 h 0,0 UV-I 0 W/m -6,3 C -5,5 C 8,0 km/h (2 Bft)
21.02.2018 05:00 -5,9 C 58 % 92 % 1020,9 hPa 0,0 l/m 2,6 km/h (1 Bft) N-NW 0,00 h 0,0 UV-I 0 W/m -7,0 C -6,0 C 5,0 km/h (1 Bft)
21.02.2018 06:00 -6,5 C 57 % 92 % 1021,3 hPa 0,0 l/m 4,3 km/h (1 Bft) N 0,00 h 0,0 UV-I 0 W/m -7,5 C -6,6 C 6,9 km/h (2 Bft)
21.02.2018 07:00 -6,8 C 57 % 92 % 1021,4 hPa 0,0 l/m 3,7 km/h (1 Bft) N 0,00 h 0,0 UV-I 18 W/m -7,8 C -6,8 C 5,9 km/h (2 Bft)
21.02.2018 08:00 -5,4 C 57 % 94 % 1021,4 hPa 0,0 l/m 4,5 km/h (1 Bft) N 0,37 h 0,5 UV-I 125 W/m -6,3 C -5,9 C 7,8 km/h (2 Bft)
21.02.2018 09:00 -2,2 C 49 % 87 % 1021,5 hPa 0,0 l/m 5,9 km/h (2 Bft) N 1,00 h 0,8 UV-I 284 W/m -4,0 C -2,9 C 10,4 km/h (2 Bft)
21.02.2018 10:00 0,2 C 39 % 76 % 1021,6 hPa 0,0 l/m 9,2 km/h (2 Bft) N 1,00 h 1,3 UV-I 406 W/m -3,6 C -2,5 C 14,2 km/h (3 Bft)
21.02.2018 11:00 2,2 C 44 % 69 % 1021,7 hPa 0,0 l/m 10,0 km/h (2 Bft) N 1,00 h 1,7 UV-I 476 W/m -3,0 C -1,1 C 16,0 km/h (3 Bft)
21.02.2018 12:00 3,7 C 46 % 59 % 1021,5 hPa 0,0 l/m 9,6 km/h (2 Bft) N 1,00 h 1,8 UV-I 487 W/m -3,4 C 0,8 C 15,7 km/h (3 Bft)
21.02.2018 13:00 4,8 C 46 % 55 % 1021,0 hPa 0,0 l/m 7,9 km/h (2 Bft) N 1,00 h 1,6 UV-I 454 W/m -3,5 C 3,2 C 13,4 km/h (3 Bft)
21.02.2018 14:00 5,5 C 47 % 53 % 1020,2 hPa 0,0 l/m 7,6 km/h (2 Bft) N 1,00 h 1,2 UV-I 378 W/m -3,4 C 4,1 C 12,3 km/h (3 Bft)
21.02.2018 15:00 5,0 C 47 % 49 % 1020,0 hPa 0,0 l/m 9,7 km/h (2 Bft) N 1,00 h 0,8 UV-I 261 W/m -4,7 C 2,4 C 15,8 km/h (3 Bft)
21.02.2018 16:00 3,3 C 47 % 55 % 1020,2 hPa 0,0 l/m 9,1 km/h (2 Bft) N 0,17 h 0,5 UV-I 98 W/m -4,9 C 0,9 C 15,2 km/h (3 Bft)
21.02.2018 17:00 1,1 C 48 % 56 % 1020,6 hPa 0,0 l/m 6,3 km/h (2 Bft) N-NO 0,00 h 0,0 UV-I 16 W/m -6,6 C -0,1 C 11,0 km/h (2 Bft)
21.02.2018 18:00 -0,7 C 50 % 66 % 1021,5 hPa 0,0 l/m 10,3 km/h (2 Bft) N-NO 0,00 h 0,0 UV-I 0 W/m -6,2 C -4,4 C 16,8 km/h (3 Bft)
21.02.2018 19:00 -1,8 C 51 % 70 % 1022,2 hPa 0,0 l/m 8,8 km/h (2 Bft) N-NO 0,00 h 0,0 UV-I 0 W/m -6,6 C -4,3 C 14,0 km/h (3 Bft)
21.02.2018 20:00 -2,5 C 52 % 73 % 1022,4 hPa 0,0 l/m 5,6 km/h (1 Bft) N-NO 0,00 h 0,0 UV-I 0 W/m -6,7 C -3,2 C 9,4 km/h (2 Bft)
21.02.2018 21:00 -2,7 C 53 % 72 % 1022,4 hPa 0,0 l/m 5,3 km/h (1 Bft) N-NO 0,00 h 0,0 UV-I 0 W/m -7,0 C -3,5 C 10,0 km/h (2 Bft)
21.02.2018 22:00 -2,9 C 53 % 73 % 1022,5 hPa 0,0 l/m 3,8 km/h (1 Bft) NO 0,00 h 0,0 UV-I 0 W/m -7,0 C -3,3 C 8,4 km/h (2 Bft)
21.02.2018 23:00 -3,5 C 54 % 76 % 1022,4 hPa 0,0 l/m 3,5 km/h (1 Bft) N-NO 0,00 h 0,0 UV-I 0 W/m -7,1 C -3,9 C 6,7 km/h (2 Bft)
22.02.2018 00:00 -3,8 C 54 % 79 % 1022,1 hPa 0,0 l/m 5,1 km/h (1 Bft) O-NO 0,00 h 0,0 UV-I 0 W/m -7,0 C -4,2 C 9,8 km/h (2 Bft)
22.02.2018 01:00 -4,3 C 54 % 81 % 1022,0 hPa 0,0 l/m 4,6 km/h (1 Bft) O-NO 0,00 h 0,0 UV-I 0 W/m -7,1 C -4,6 C 9,7 km/h (2 Bft)
22.02.2018 02:00 -4,6 C 55 % 83 % 1021,6 hPa 0,0 l/m 5,7 km/h (1 Bft) O-NO 0,00 h 0,0 UV-I 0 W/m -7,1 C -5,4 C 10,5 km/h (2 Bft)
22.02.2018 03:00 -4,9 C 56 % 85 % 1021,4 hPa 0,0 l/m 3,1 km/h (1 Bft) NO 0,00 h 0,0 UV-I 0 W/m -7,1 C -5,2 C 6,8 km/h (2 Bft)
22.02.2018 04:00 -4,7 C 55 % 84 % 1021,4 hPa 0,0 l/m 4,2 km/h (1 Bft) N-NO 0,00 h 0,0 UV-I 0 W/m -6,9 C -4,8 C 8,3 km/h (2 Bft)
22.02.2018 05:00 -5,2 C 55 % 85 % 1021,2 hPa 0,0 l/m 4,0 km/h (1 Bft) NO 0,00 h 0,0 UV-I 0 W/m -7,4 C -5,4 C 8,4 km/h (2 Bft)
22.02.2018 06:00 -5,5 C 55 % 83 % 1021,0 hPa 0,0 l/m 4,7 km/h (1 Bft) NO 0,00 h 0,0 UV-I 0 W/m -7,9 C -5,7 C 9,2 km/h (2 Bft)
22.02.2018 07:00 -5,6 C 55 % 80 % 1021,0 hPa 0,0 l/m 5,1 km/h (1 Bft) O-NO 0,00 h 0,0 UV-I 18 W/m -8,4 C -6,0 C 10,4 km/h (2 Bft)
22.02.2018 08:00 -4,2 C 50 % 74 % 1021,2 hPa 0,0 l/m 7,1 km/h (2 Bft) NO 0,47 h 0,5 UV-I 136 W/m -8,1 C -5,9 C 13,5 km/h (3 Bft)
22.02.2018 09:00 -2,6 C 43 % 68 % 1021,1 hPa 0,0 l/m 10,7 km/h (2 Bft) O-NO 0,97 h 0,9 UV-I 317 W/m -7,6 C -6,9 C 19,4 km/h (3 Bft)
22.02.2018 10:00 -2,0 C 44 % 67 % 1021,1 hPa 0,0 l/m 9,3 km/h (2 Bft) O-NO 0,87 h 1,3 UV-I 350 W/m -7,2 C -5,1 C 17,5 km/h (3 Bft)
22.02.2018 11:00 -0,1 C 45 % 61 % 1020,9 hPa 0,0 l/m 11,5 km/h (2 Bft) O-NO 1,00 h 1,7 UV-I 484 W/m -6,6 C -4,6 C 21,6 km/h (4 Bft)
22.02.2018 12:00 0,9 C 45 % 57 % 1020,6 hPa 0,0 l/m 11,8 km/h (2 Bft) O-NO 1,00 h 1,8 UV-I 497 W/m -6,6 C -3,6 C 20,2 km/h (4 Bft)
22.02.2018 13:00 1,0 C 43 % 54 % 1020,2 hPa 0,0 l/m 11,1 km/h (2 Bft) O-NO 1,00 h 1,6 UV-I 467 W/m -7,3 C -3,2 C 21,3 km/h (4 Bft)
22.02.2018 14:00 1,5 C 44 % 52 % 1019,8 hPa 0,0 l/m 10,8 km/h (2 Bft) O-NO 1,00 h 1,2 UV-I 387 W/m -7,4 C -2,3 C 20,1 km/h (4 Bft)
22.02.2018 15:00 1,5 C 46 % 50 % 1019,6 hPa 0,0 l/m 10,6 km/h (2 Bft) O-NO 1,00 h 0,8 UV-I 265 W/m -7,7 C -2,2 C 19,3 km/h (3 Bft)
22.02.2018 16:00 0,6 C 47 % 51 % 1019,6 hPa 0,0 l/m 10,8 km/h (2 Bft) O-NO 0,20 h 0,5 UV-I 108 W/m -8,4 C -3,3 C 19,2 km/h (3 Bft)
22.02.2018 17:00 -0,9 C 48 % 56 % 1019,8 hPa 0,0 l/m 8,0 km/h (2 Bft) NO 0,00 h 0,0 UV-I 18 W/m -8,5 C -2,8 C 15,6 km/h (3 Bft)
22.02.2018 18:00 -1,8 C 50 % 61 % 1020,3 hPa 0,0 l/m 6,2 km/h (2 Bft) N-NO 0,00 h 0,0 UV-I 0 W/m -8,3 C -2,9 C 12,4 km/h (3 Bft)
22.02.2018 19:00 -2,5 C 51 % 63 % 1020,6 hPa 0,0 l/m 5,6 km/h (1 Bft) N-NO 0,00 h 0,0 UV-I 0 W/m -8,6 C -3,4 C 11,9 km/h (2 Bft)
22.02.2018 20:00 -3,2 C 52 % 66 % 1020,7 hPa 0,0 l/m 4,9 km/h (1 Bft) NO 0,00 h 0,0 UV-I 0 W/m -8,7 C -3,9 C 10,2 km/h (2 Bft)
22.02.2018 21:00 -3,9 C 52 % 69 % 1020,7 hPa 0,0 l/m 4,6 km/h (1 Bft) NO 0,00 h 0,0 UV-I 0 W/m -8,7 C -4,1 C 9,6 km/h (2 Bft)
22.02.2018 22:00 -4,3 C 53 % 71 % 1020,8 hPa 0,0 l/m 6,2 km/h (2 Bft) N-NO 0,00 h 0,0 UV-I 0 W/m -8,7 C -5,1 C 11,7 km/h (2 Bft)
22.02.2018 23:00 -4,7 C 53 % 73 % 1020,8 hPa 0,0 l/m 5,6 km/h (1 Bft) NO 0,00 h 0,0 UV-I 0 W/m -8,8 C -5,1 C 10,6 km/h (2 Bft)
23.02.2018 00:00 -5,2 C 53 % 75 % 1020,7 hPa 0,0 l/m 4,6 km/h (1 Bft) N-NO 0,00 h 0,0 UV-I 0 W/m -8,9 C -5,5 C 9,3 km/h (2 Bft)
23.02.2018 01:00 -5,4 C 54 % 77 % 1020,4 hPa 0,0 l/m 6,0 km/h (2 Bft) N-NO 0,00 h 0,0 UV-I 0 W/m -8,9 C -6,3 C 11,6 km/h (2 Bft)
23.02.2018 02:00 -5,7 C 55 % 78 % 1020,3 hPa 0,0 l/m 5,7 km/h (1 Bft) N-NO 0,00 h 0,0 UV-I 0 W/m -8,8 C -6,1 C 10,6 km/h (2 Bft)
23.02.2018 03:00 -5,9 C 56 % 80 % 1019,8 hPa 0,0 l/m 5,2 km/h (1 Bft) N-NO 0,00 h 0,0 UV-I 0 W/m -8,8 C -6,3 C 10,2 km/h (2 Bft)
23.02.2018 04:00 -6,1 C 55 % 82 % 1019,7 hPa 0,0 l/m 5,6 km/h (1 Bft) N-NO 0,00 h 0,0 UV-I 0 W/m -8,7 C -6,9 C 9,7 km/h (2 Bft)
23.02.2018 05:00 -6,5 C 55 % 82 % 1019,5 hPa 0,0 l/m 3,2 km/h (1 Bft) NO 0,00 h 0,0 UV-I 0 W/m -8,9 C -6,7 C 6,7 km/h (2 Bft)
23.02.2018 06:00 -6,5 C 54 % 83 % 1019,8 hPa 0,0 l/m 6,6 km/h (2 Bft) N-NO 0,00 h 0,0 UV-I 0 W/m -8,9 C -7,8 C 12,3 km/h (3 Bft)
23.02.2018 07:00 -6,4 C 54 % 82 % 1020,1 hPa 0,0 l/m 6,1 km/h (2 Bft) NO 0,00 h 0,0 UV-I 21 W/m -9,0 C -7,5 C 12,6 km/h (3 Bft)
23.02.2018 08:00 -5,0 C 54 % 78 % 1020,2 hPa 0,0 l/m 8,7 km/h (2 Bft) O-NO 0,47 h 0,5 UV-I 136 W/m -8,2 C -8,0 C 15,0 km/h (3 Bft)
23.02.2018 09:00 -3,1 C 53 % 72 % 1020,4 hPa 0,0 l/m 8,0 km/h (2 Bft) O-NO 1,00 h 0,8 UV-I 310 W/m -7,5 C -5,5 C 15,0 km/h (3 Bft)
23.02.2018 10:00 -1,7 C 50 % 64 % 1021,0 hPa 0,0 l/m 11,1 km/h (2 Bft) O-NO 1,00 h 1,2 UV-I 414 W/m -7,5 C -6,2 C 19,6 km/h (3 Bft)
23.02.2018 11:00 -0,3 C 50 % 61 % 1021,0 hPa 0,0 l/m 9,7 km/h (2 Bft) O-NO 1,00 h 1,6 UV-I 485 W/m -7,0 C -3,5 C 17,6 km/h (3 Bft)
23.02.2018 12:00 0,4 C 49 % 57 % 1020,6 hPa 0,0 l/m 9,1 km/h (2 Bft) O-NO 1,00 h 1,7 UV-I 500 W/m -7,0 C -2,3 C 16,7 km/h (3 Bft)
23.02.2018 13:00 1,2 C 45 % 55 % 1020,3 hPa 0,0 l/m 7,3 km/h (2 Bft) O-NO 1,00 h 1,6 UV-I 467 W/m -6,9 C -0,6 C 14,2 km/h (3 Bft)
23.02.2018 14:00 1,0 C 44 % 53 % 1020,0 hPa 0,0 l/m 8,6 km/h (2 Bft) O-NO 1,00 h 1,2 UV-I 389 W/m -7,6 C -1,5 C 17,0 km/h (3 Bft)
23.02.2018 15:00 0,6 C 44 % 54 % 1020,1 hPa 0,0 l/m 9,4 km/h (2 Bft) O-NO 1,00 h 0,8 UV-I 263 W/m -7,5 C -2,5 C 17,9 km/h (3 Bft)
23.02.2018 16:00 -0,4 C 46 % 56 % 1020,4 hPa 0,0 l/m 9,4 km/h (2 Bft) O-NO 0,22 h 0,5 UV-I 109 W/m -8,1 C -3,3 C 17,6 km/h (3 Bft)
23.02.2018 17:00 -1,8 C 47 % 60 % 1020,7 hPa 0,0 l/m 8,0 km/h (2 Bft) O-NO 0,00 h 0,0 UV-I 19 W/m -8,5 C -3,9 C 14,6 km/h (3 Bft)
23.02.2018 18:00 -2,7 C 48 % 65 % 1021,2 hPa 0,0 l/m 7,2 km/h (2 Bft) NO 0,00 h 0,0 UV-I 0 W/m -8,4 C -4,5 C 13,2 km/h (3 Bft)
23.02.2018 19:00 -3,6 C 50 % 66 % 1021,6 hPa 0,0 l/m 6,5 km/h (2 Bft) NO 0,00 h 0,0 UV-I 0 W/m -9,1 C -4,9 C 12,9 km/h (3 Bft)
23.02.2018 20:00 -4,4 C 51 % 70 % 1021,9 hPa 0,0 l/m 5,0 km/h (1 Bft) NO 0,00 h 0,0 UV-I 0 W/m -9,2 C -5,3 C 10,6 km/h (2 Bft)
23.02.2018 21:00 -5,2 C 52 % 72 % 1022,5 hPa 0,0 l/m 5,2 km/h (1 Bft) O-NO 0,00 h 0,0 UV-I 0 W/m -9,5 C -6,1 C 10,6 km/h (2 Bft)
23.02.2018 22:00 -5,9 C 52 % 75 % 1022,6 hPa 0,0 l/m 5,6 km/h (1 Bft) NO 0,00 h 0,0 UV-I 0 W/m -9,6 C -6,9 C 11,9 km/h (2 Bft)
23.02.2018 23:00 -6,5 C 52 % 79 % 1022,7 hPa 0,0 l/m 7,3 km/h (2 Bft) O-NO 0,00 h 0,0 UV-I 0 W/m -9,5 C -8,5 C 14,2 km/h (3 Bft)
24.02.2018 00:00 -7,0 C 52 % 82 % 1022,8 hPa 0,0 l/m 7,0 km/h (2 Bft) O-NO 0,00 h 0,0 UV-I 0 W/m -9,6 C -8,9 C 14,2 km/h (3 Bft)
24.02.2018 01:00 -7,4 C 53 % 83 % 1023,1 hPa 0,0 l/m 7,5 km/h (2 Bft) NO 0,00 h 0,0 UV-I 0 W/m -9,8 C -9,7 C 14,6 km/h (3 Bft)
24.02.2018 02:00 -7,7 C 54 % 84 % 1023,1 hPa 0,0 l/m 5,4 km/h (1 Bft) O-NO 0,00 h 0,0 UV-I 0 W/m -9,9 C -8,3 C 11,6 km/h (2 Bft)
24.02.2018 03:00 -8,0 C 54 % 84 % 1023,1 hPa 0,0 l/m 2,9 km/h (1 Bft) O-NO 0,00 h 0,0 UV-I 0 W/m -10,2 C -8,1 C 6,5 km/h (2 Bft)
24.02.2018 04:00 -8,3 C 54 % 85 % 1023,3 hPa 0,0 l/m 3,2 km/h (1 Bft) NO 0,00 h 0,0 UV-I 0 W/m -10,4 C -8,6 C 6,9 km/h (2 Bft)
24.02.2018 05:00 -8,2 C 55 % 85 % 1023,6 hPa 0,0 l/m 8,3 km/h (2 Bft) NO 0,00 h 0,0 UV-I 0 W/m -10,3 C -10,9 C 14,4 km/h (3 Bft)
24.02.2018 06:00 -8,4 C 54 % 84 % 1024,2 hPa 0,0 l/m 2,3 km/h (1 Bft) O-NO 0,00 h 0,0 UV-I 0 W/m -10,6 C -8,4 C 5,3 km/h (1 Bft)
24.02.2018 07:00 -8,8 C 54 % 84 % 1024,7 hPa 0,0 l/m 0,2 km/h (0 Bft) N-NO 0,00 h 0,0 UV-I 21 W/m -11,0 C -8,8 C 0,9 km/h (0 Bft)
24.02.2018 08:00 -7,0 C 54 % 78 % 1025,0 hPa 0,0 l/m 0,8 km/h (0 Bft) O-NO 0,48 h 0,6 UV-I 151 W/m -10,2 C -7,0 C 2,7 km/h (1 Bft)
24.02.2018 09:00 -2,9 C 51 % 56 % 1024,9 hPa 0,0 l/m 9,8 km/h (2 Bft) O-NO 1,00 h 1,0 UV-I 333 W/m -10,3 C -6,4 C 18,7 km/h (3 Bft)
24.02.2018 10:00 -1,0 C 49 % 59 % 1024,8 hPa 0,0 l/m 11,4 km/h (2 Bft) O-NO 1,00 h 1,4 UV-I 388 W/m -7,9 C -5,5 C 21,3 km/h (4 Bft)
24.02.2018 11:00 -1,7 C 51 % 67 % 1025,1 hPa 0,0 l/m 9,8 km/h (2 Bft) O-NO 1,00 h 1,4 UV-I 247 W/m -7,1 C -5,1 C 18,3 km/h (3 Bft)
24.02.2018 12:00 0,3 C 51 % 58 % 1024,8 hPa 0,0 l/m 9,3 km/h (2 Bft) O-NO 1,00 h 1,8 UV-I 429 W/m -7,1 C -2,6 C 17,3 km/h (3 Bft)
24.02.2018 13:00 0,9 C 49 % 49 % 1024,4 hPa 0,0 l/m 9,8 km/h (2 Bft) O-NO 1,00 h 1,6 UV-I 474 W/m -8,7 C -2,4 C 18,3 km/h (3 Bft)
24.02.2018 14:00 1,0 C 49 % 41 % 1024,2 hPa 0,0 l/m 9,8 km/h (2 Bft) NO 1,00 h 1,3 UV-I 403 W/m -10,7 C -2,1 C 18,6 km/h (3 Bft)
24.02.2018 15:00 0,2 C 50 % 42 % 1024,4 hPa 0,0 l/m 11,1 km/h (2 Bft) O-NO 1,00 h 0,8 UV-I 281 W/m -11,3 C -3,9 C 20,5 km/h (4 Bft)
24.02.2018 16:00 -1,1 C 51 % 44 % 1024,7 hPa 0,0 l/m 11,3 km/h (2 Bft) O-NO 0,48 h 0,5 UV-I 136 W/m -11,8 C -5,6 C 21,1 km/h (4 Bft)
24.02.2018 17:00 -3,0 C 52 % 53 % 1025,4 hPa 0,0 l/m 8,1 km/h (2 Bft) NO 0,00 h 0,0 UV-I 15 W/m -11,3 C -5,5 C 15,1 km/h (3 Bft)
24.02.2018 18:00 -4,4 C 52 % 58 % 1026,3 hPa 0,0 l/m 8,3 km/h (2 Bft) O-NO 0,00 h 0,0 UV-I 0 W/m -11,4 C -7,0 C 15,3 km/h (3 Bft)
24.02.2018 19:00 -5,5 C 53 % 61 % 1026,9 hPa 0,0 l/m 10,4 km/h (2 Bft) O-NO 0,00 h 0,0 UV-I 0 W/m -11,8 C -9,6 C 17,5 km/h (3 Bft)
24.02.2018 20:00 -6,2 C 55 % 63 % 1027,4 hPa 0,0 l/m 7,2 km/h (2 Bft) O-NO 0,00 h 0,0 UV-I 0 W/m -12,0 C -8,2 C 13,6 km/h (3 Bft)
24.02.2018 21:00 -6,7 C 57 % 66 % 1027,7 hPa 0,0 l/m 8,2 km/h (2 Bft) NO 0,00 h 0,0 UV-I 0 W/m -11,9 C -9,5 C 15,3 km/h (3 Bft)
24.02.2018 22:00 -7,3 C 57 % 70 % 1028,2 hPa 0,0 l/m 9,3 km/h (2 Bft) O-NO 0,00 h 0,0 UV-I 0 W/m -11,9 C -10,9 C 16,5 km/h (3 Bft)
24.02.2018 23:00 -8,2 C 57 % 72 % 1028,5 hPa 0,0 l/m 9,2 km/h (2 Bft) O-NO 0,00 h 0,0 UV-I 0 W/m -12,3 C -11,6 C 16,3 km/h (3 Bft)
25.02.2018 00:00 -8,7 C 57 % 75 % 1028,5 hPa 0,0 l/m 6,6 km/h (2 Bft) O-NO 0,00 h 0,0 UV-I 0 W/m -12,3 C -10,1 C 12,8 km/h (3 Bft)
25.02.2018 01:00 -9,1 C 57 % 77 % 1028,4 hPa 0,0 l/m 5,7 km/h (1 Bft) O-NO 0,00 h 0,0 UV-I 0 W/m -12,4 C -9,8 C 10,6 km/h (2 Bft)
25.02.2018 02:00 -9,4 C 57 % 77 % 1028,2 hPa 0,0 l/m 5,2 km/h (1 Bft) O-NO 0,00 h 0,0 UV-I 0 W/m -12,6 C -10,1 C 9,4 km/h (2 Bft)
25.02.2018 03:00 -9,7 C 57 % 78 % 1028,1 hPa 0,0 l/m 3,8 km/h (1 Bft) NO 0,00 h 0,0 UV-I 0 W/m -12,9 C -9,9 C 6,8 km/h (2 Bft)
25.02.2018 04:00 -10,2 C 58 % 78 % 1028,0 hPa 0,0 l/m 3,3 km/h (1 Bft) N-NO 0,00 h 0,0 UV-I 0 W/m -13,2 C -10,2 C 5,6 km/h (1 Bft)
25.02.2018 05:00 -10,8 C 58 % 80 % 1027,9 hPa 0,0 l/m 2,0 km/h (1 Bft) N 0,00 h 0,0 UV-I 0 W/m -13,6 C -10,8 C 3,3 km/h (1 Bft)
25.02.2018 06:00 -11,5 C 58 % 81 % 1027,9 hPa 0,0 l/m 3,0 km/h (1 Bft) N 0,00 h 0,0 UV-I 0 W/m -14,1 C -11,5 C 5,1 km/h (1 Bft)
25.02.2018 07:00 -11,7 C 57 % 83 % 1028,0 hPa 0,0 l/m 3,5 km/h (1 Bft) N-NO 0,00 h 0,0 UV-I 21 W/m -14,0 C -11,7 C 6,1 km/h (2 Bft)
25.02.2018 08:00 -9,8 C 58 % 80 % 1028,1 hPa 0,0 l/m 2,2 km/h (1 Bft) N 0,52 h 0,6 UV-I 165 W/m -12,6 C -9,8 C 4,5 km/h (1 Bft)
25.02.2018 09:00 -7,7 C 57 % 65 % 1028,0 hPa 0,0 l/m 4,6 km/h (1 Bft) O-SO 1,00 h 0,9 UV-I 350 W/m -13,2 C -8,1 C 9,6 km/h (2 Bft)
25.02.2018 10:00 -6,9 C 53 % 56 % 1028,0 hPa 0,0 l/m 6,5 km/h (2 Bft) O-SO 1,00 h 1,3 UV-I 454 W/m -14,1 C -8,2 C 11,8 km/h (2 Bft)
25.02.2018 11:00 -5,8 C 51 % 51 % 1027,9 hPa 0,0 l/m 6,2 km/h (2 Bft) O 1,00 h 1,7 UV-I 516 W/m -14,2 C -6,9 C 12,0 km/h (2 Bft)
25.02.2018 12:00 -4,5 C 52 % 44 % 1027,3 hPa 0,0 l/m 6,9 km/h (2 Bft) O-SO 1,00 h 1,8 UV-I 529 W/m -15,0 C -6,0 C 13,0 km/h (3 Bft)
25.02.2018 13:00 -3,9 C 53 % 40 % 1026,7 hPa 0,0 l/m 7,2 km/h (2 Bft) O 1,00 h 1,6 UV-I 495 W/m -15,4 C -5,6 C 13,9 km/h (3 Bft)
25.02.2018 14:00 -3,4 C 49 % 37 % 1026,1 hPa 0,0 l/m 7,3 km/h (2 Bft) O-SO 1,00 h 1,2 UV-I 416 W/m -15,8 C -5,2 C 13,8 km/h (3 Bft)
25.02.2018 15:00 -3,5 C 42 % 37 % 1026,1 hPa 0,0 l/m 5,3 km/h (1 Bft) O 1,00 h 0,8 UV-I 294 W/m -16,1 C -4,3 C 10,9 km/h (2 Bft)
25.02.2018 16:00 -4,2 C 45 % 42 % 1026,1 hPa 0,0 l/m 5,6 km/h (1 Bft) O 0,35 h 0,5 UV-I 127 W/m -15,1 C -4,9 C 11,3 km/h (2 Bft)
25.02.2018 17:00 -5,4 C 48 % 44 % 1026,3 hPa 0,0 l/m 6,4 km/h (2 Bft) O-NO 0,00 h 0,0 UV-I 19 W/m -15,8 C -6,5 C 12,2 km/h (2 Bft)
25.02.2018 18:00 -6,6 C 51 % 48 % 1026,8 hPa 0,0 l/m 5,0 km/h (1 Bft) O-NO 0,00 h 0,0 UV-I 0 W/m -15,8 C -7,0 C 9,9 km/h (2 Bft)
25.02.2018 19:00 -7,5 C 53 % 52 % 1027,1 hPa 0,0 l/m 2,5 km/h (1 Bft) N-NO 0,00 h 0,0 UV-I 0 W/m -15,7 C -7,6 C 6,5 km/h (2 Bft)
25.02.2018 20:00 -8,1 C 53 % 54 % 1027,4 hPa 0,0 l/m 4,8 km/h (1 Bft) N-NO 0,00 h 0,0 UV-I 0 W/m -15,7 C -8,5 C 10,0 km/h (2 Bft)
25.02.2018 21:00 -8,8 C 55 % 58 % 1027,4 hPa 0,0 l/m 3,6 km/h (1 Bft) N-NO 0,00 h 0,0 UV-I 0 W/m -15,5 C -8,8 C 8,1 km/h (2 Bft)
25.02.2018 22:00 -9,4 C 55 % 61 % 1027,5 hPa 0,0 l/m 4,4 km/h (1 Bft) N-NO 0,00 h 0,0 UV-I 0 W/m -15,5 C -9,5 C 8,3 km/h (2 Bft)
25.02.2018 23:00 -9,8 C 55 % 63 % 1027,5 hPa 0,0 l/m 4,4 km/h (1 Bft) N-NO 0,00 h 0,0 UV-I 0 W/m -15,5 C -9,9 C 8,0 km/h (2 Bft)
Min-Datum _ 25.02.18 21.02.18 25.02.18 20.02.18 - 19.02.18 - - - - 25.02.18 24.02.18 19.02.18
_ Min-Zeit 06:54 10:16 15:04 06:29 - 00:15 - - - - 15:04 05:30 01:09
Minimum _ -11,8 C 36 % 34 % 1016,4 hPa - 0,0 km/h (0 Bft) - - - - -17,3 C -17,7 C 0,0 km/h (0 Bft)
Max-Datum _ 21.02.18 19.02.18 21.02.18 24.02.18 19.02.18 24.02.18 - 19.02.18 24.02.18 24.02.18 19.02.18 21.02.18 22.02.18
_ Max-Zeit 14:38 01:38 08:21 23:29 00:00 09:54 - 13:22 12:01 12:19 13:34 14:37 13:26
Maximum _ 6,0 C 61 % 94 % 1028,6 hPa 0,0 l/m 22,5 km/h
O-NO (4 Bft)
- 0,03 h 2,1 UV-I 696 W/m -2,0 C 5,9 C 37,0 km/h
O-NO (5 Bft)
Durchschnitt _ -3,4 C 53 % 72 % 1021,9 hPa #0,0 l/m 5,1 km/h (1 Bft) O-NO #46:05 h 1,1 UV-I 239 W/m -8,0 C -4,5 C 9,8 km/h (2 Bft)